Terminal Aerodrome Forecast
Issued by NWS

Home | Current Version | Previous Version | Text Only | Print | Product List | Glossary On
Versions: 1 2 3 4 5 6 7 8 9 10 11 12 13
000
FTUS42 KMLB 230500 RRA
TAFFPR
TAF
KFPR 230552Z 2306/2406 11018G24KT P6SM -DZ OVC025
      TEMPO 2309/2312 5SM -RA BR
     FM231400 15017G25KT P6SM SCT025 BKN040
      TEMPO 2314/2316 BKN025
     FM231900 15016G23KT P6SM VCSH BKN035 BKN060
     FM240200 15008KT P6SM BKN035=

USA.gov is the U.S. government's official web portal to all federal, state and local government web resources and services.